createdAt,value
2018-06-09T00:00:49.657Z,48.43
2018-06-09T00:03:17.838Z,46.70
2018-06-09T00:05:45.990Z,47.70
2018-06-09T00:08:14.180Z,51.80
2018-06-09T00:10:42.337Z,51.33
2018-06-09T00:13:10.504Z,50.47
2018-06-09T00:15:38.675Z,48.77
2018-06-09T00:18:06.835Z,46.93
2018-06-09T00:20:34.982Z,58.70
2018-06-09T00:23:03.140Z,53.77
2018-06-09T00:25:31.313Z,52.30
2018-06-09T00:27:59.487Z,55.27
2018-06-09T00:30:27.639Z,52.00
2018-06-09T00:32:55.814Z,50.23
2018-06-09T00:35:23.984Z,50.63
2018-06-09T00:37:52.167Z,48.20
2018-06-09T00:40:20.361Z,48.00
2018-06-09T00:42:48.529Z,52.87
2018-06-09T00:45:16.721Z,55.00
2018-06-09T00:47:44.880Z,51.00
2018-06-09T00:50:13.060Z,56.53
2018-06-09T00:52:41.229Z,61.83
2018-06-09T00:55:09.413Z,53.87
2018-06-09T00:57:37.591Z,47.93
2018-06-09T01:00:05.763Z,49.90
2018-06-09T01:02:33.920Z,49.40
2018-06-09T01:05:02.091Z,53.63
2018-06-09T01:07:30.264Z,55.27
2018-06-09T01:09:58.424Z,56.73
2018-06-09T01:12:26.582Z,49.80
2018-06-09T01:14:54.770Z,53.80
2018-06-09T01:17:22.941Z,51.50
2018-06-09T01:19:51.133Z,56.30
2018-06-09T01:22:19.289Z,63.07
2018-06-09T01:24:47.465Z,59.67
2018-06-09T01:27:15.637Z,61.30
2018-06-09T01:29:43.811Z,64.73
2018-06-09T01:32:11.976Z,63.77
2018-06-09T01:34:40.136Z,64.20
2018-06-09T01:37:08.296Z,57.57
2018-06-09T01:39:36.467Z,57.07
2018-06-09T01:42:04.629Z,51.90
2018-06-09T01:44:32.582Z,52.63
2018-06-09T01:47:00.974Z,47.93
2018-06-09T01:49:29.148Z,49.67
2018-06-09T01:51:57.066Z,49.67
2018-06-09T01:54:25.244Z,44.43
2018-06-09T01:56:53.418Z,63.63
2018-06-09T01:59:21.588Z,53.03
2018-06-09T02:01:49.762Z,49.53
2018-06-09T02:04:17.943Z,54.13
2018-06-09T02:06:46.097Z,50.50
2018-06-09T02:09:14.289Z,55.23
2018-06-09T02:11:42.461Z,56.00
2018-06-09T02:14:10.635Z,48.97
2018-06-09T02:16:38.805Z,52.57
2018-06-09T02:21:41.668Z,53.47
2018-06-09T02:24:09.846Z,52.60
2018-06-09T02:26:38.127Z,43.97
2018-06-09T02:29:06.433Z,56.77
2018-06-09T02:31:34.706Z,53.73
2018-06-09T02:34:02.963Z,49.33
2018-06-09T02:36:31.191Z,42.23
2018-06-09T02:38:59.444Z,53.33
2018-06-09T02:41:27.692Z,44.93
2018-06-09T02:43:55.942Z,57.57
2018-06-09T02:46:24.178Z,61.40
2018-06-09T02:48:52.331Z,61.43
2018-06-09T02:51:20.520Z,68.93
2018-06-09T02:53:48.684Z,66.40
2018-06-09T02:56:16.871Z,61.10
2018-06-09T02:58:45.034Z,74.17
2018-06-09T03:01:13.231Z,69.37
2018-06-09T03:03:41.415Z,68.97
2018-06-09T03:06:09.610Z,69.20
2018-06-09T03:08:37.764Z,69.83
2018-06-09T03:11:05.940Z,70.17
2018-06-09T03:13:34.113Z,65.80
2018-06-09T03:16:02.305Z,65.20
2018-06-09T03:18:30.459Z,65.23
2018-06-09T03:20:58.642Z,65.23
2018-06-09T03:23:26.797Z,58.27
2018-06-09T03:25:54.986Z,69.53
2018-06-09T03:28:23.160Z,66.43
2018-06-09T03:30:51.335Z,63.73
2018-06-09T03:33:19.515Z,73.90
2018-06-09T03:35:47.689Z,61.47
2018-06-09T03:38:15.853Z,71.93
2018-06-09T03:40:44.033Z,62.23
2018-06-09T03:43:12.210Z,68.43
2018-06-09T03:45:40.375Z,71.07
2018-06-09T03:48:08.533Z,78.23
2018-06-09T03:50:36.780Z,79.50
2018-06-09T03:53:04.893Z,80.47
2018-06-09T03:55:33.044Z,74.73
2018-06-09T03:58:01.417Z,73.17
2018-06-09T04:00:29.600Z,91.77
2018-06-09T04:02:57.771Z,84.10
2018-06-09T04:05:25.930Z,88.37
2018-06-09T04:07:54.140Z,86.90
2018-06-09T04:10:22.333Z,84.73
2018-06-09T04:12:50.501Z,86.03
2018-06-09T04:15:18.662Z,76.77
2018-06-09T04:17:46.833Z,93.70
2018-06-09T04:20:15.017Z,85.67
2018-06-09T04:22:44.020Z,86.80
2018-06-09T04:25:12.190Z,74.87
2018-06-09T04:27:40.365Z,83.57
2018-06-09T04:30:08.530Z,82.90
2018-06-09T04:32:36.710Z,77.50
2018-06-09T04:35:04.944Z,78.70
2018-06-09T04:37:33.120Z,78.43
2018-06-09T04:40:01.346Z,79.00
2018-06-09T04:42:29.465Z,76.73
2018-06-09T04:44:57.635Z,75.03
2018-06-09T04:47:25.817Z,74.90
2018-06-09T04:49:54.004Z,72.30
2018-06-09T04:52:22.170Z,69.53
2018-06-09T04:54:50.329Z,66.30
2018-06-09T04:57:18.519Z,73.00
2018-06-09T04:59:46.699Z,66.20
2018-06-09T05:02:14.877Z,66.73
2018-06-09T05:04:43.045Z,63.40
2018-06-09T05:07:11.281Z,59.20
2018-06-09T05:09:39.397Z,69.83
2018-06-09T05:12:07.569Z,72.70
2018-06-09T05:14:35.739Z,73.63
2018-06-09T05:17:04.121Z,58.07
2018-06-09T05:19:32.308Z,61.27
2018-06-09T05:22:00.550Z,64.80
2018-06-09T05:24:28.704Z,59.67
2018-06-09T05:26:56.866Z,58.73
2018-06-09T05:29:24.773Z,60.27
2018-06-09T05:31:52.916Z,57.97
2018-06-09T05:34:21.076Z,57.70
2018-06-09T05:36:49.002Z,52.70
2018-06-09T05:39:17.186Z,51.10
2018-06-09T05:41:45.338Z,61.07
2018-06-09T05:44:13.509Z,66.03
2018-06-09T05:46:41.690Z,62.47
2018-06-09T05:49:09.869Z,68.70
2018-06-09T05:51:38.046Z,78.63
2018-06-09T05:54:06.224Z,70.43
2018-06-09T05:56:34.401Z,69.00
2018-06-09T05:59:02.594Z,66.97
2018-06-09T06:01:30.753Z,70.13
2018-06-09T06:03:58.952Z,68.67
2018-06-09T06:06:27.083Z,67.53
2018-06-09T06:08:55.258Z,69.10
2018-06-09T06:11:23.433Z,67.30
2018-06-09T06:13:51.620Z,68.00
2018-06-09T06:16:19.804Z,67.20
2018-06-09T06:18:47.982Z,79.27
2018-06-09T06:21:16.128Z,77.90
2018-06-09T06:23:44.313Z,78.07
2018-06-09T06:26:12.473Z,79.40
2018-06-09T06:28:40.644Z,77.00
2018-06-09T06:31:08.816Z,76.63
2018-06-09T06:33:36.993Z,74.90
2018-06-09T06:36:05.181Z,76.87
2018-06-09T06:38:33.357Z,78.50
2018-06-09T06:41:01.538Z,79.47
2018-06-09T06:43:29.718Z,76.43
2018-06-09T06:45:57.896Z,80.67
2018-06-09T06:48:26.050Z,77.07
2018-06-09T06:50:54.218Z,74.90
2018-06-09T06:53:22.389Z,76.47
2018-06-09T06:55:50.558Z,75.30
2018-06-09T06:58:18.741Z,69.93
2018-06-09T07:00:46.905Z,76.87
2018-06-09T07:03:15.085Z,72.43
2018-06-09T07:05:43.270Z,70.00
2018-06-09T07:08:11.431Z,72.77
2018-06-09T07:10:39.617Z,62.17
2018-06-09T07:13:07.773Z,65.73
2018-06-09T07:15:35.968Z,65.67
2018-06-09T07:18:04.130Z,66.37
2018-06-09T07:20:32.285Z,67.30
2018-06-09T07:23:00.466Z,68.30
2018-06-09T07:25:28.631Z,72.93
2018-06-09T07:27:56.801Z,69.87
2018-06-09T07:30:24.991Z,69.20
2018-06-09T07:32:53.147Z,66.17
2018-06-09T07:35:21.331Z,58.83
2018-06-09T07:37:49.501Z,58.57
2018-06-09T07:40:17.700Z,57.20
2018-06-09T07:42:45.844Z,55.90
2018-06-09T07:45:14.029Z,55.50
2018-06-09T07:47:42.192Z,56.00
2018-06-09T07:50:10.371Z,56.30
2018-06-09T07:52:38.510Z,51.60
2018-06-09T07:55:06.734Z,52.40
2018-06-09T07:57:34.898Z,50.57
2018-06-09T08:00:03.081Z,50.40
2018-06-09T08:02:31.246Z,49.57
2018-06-09T08:04:59.418Z,49.40
2018-06-09T08:07:27.578Z,49.53
2018-06-09T08:09:55.767Z,47.90
2018-06-09T08:12:23.954Z,41.83
2018-06-09T08:14:52.154Z,46.83
2018-06-09T08:17:20.383Z,45.40
2018-06-09T08:19:48.562Z,38.67
2018-06-09T08:22:16.726Z,43.40
2018-06-09T08:24:44.900Z,45.73
2018-06-09T08:27:13.058Z,45.47
2018-06-09T08:29:40.988Z,44.27
2018-06-09T08:32:09.162Z,43.53
2018-06-09T08:34:37.336Z,40.47
2018-06-09T08:37:05.497Z,45.37
2018-06-09T08:39:33.671Z,44.53
2018-06-09T08:42:01.860Z,40.43
2018-06-09T08:44:30.035Z,39.87
2018-06-09T08:46:58.198Z,34.73
2018-06-09T08:49:26.361Z,38.73
2018-06-09T08:51:54.533Z,35.70
2018-06-09T08:54:22.681Z,34.57
2018-06-09T08:56:50.892Z,36.20
2018-06-09T08:59:19.020Z,35.60
2018-06-09T09:01:46.943Z,36.70
2018-06-09T09:04:15.106Z,35.20
2018-06-09T09:06:43.277Z,36.13
2018-06-09T09:09:11.462Z,34.23
2018-06-09T09:11:39.638Z,32.57
2018-06-09T09:14:07.805Z,33.47
2018-06-09T09:16:35.995Z,34.63
2018-06-09T09:19:04.149Z,33.10
2018-06-09T09:21:32.323Z,30.83
2018-06-09T09:24:00.497Z,31.57
2018-06-09T09:26:28.677Z,33.10
2018-06-09T09:28:56.884Z,31.70
2018-06-09T09:31:25.062Z,27.00
2018-06-09T09:33:53.220Z,25.37
2018-06-09T09:36:21.430Z,23.07
2018-06-09T09:38:49.612Z,24.47
2018-06-09T09:41:17.827Z,24.07
2018-06-09T09:43:46.009Z,21.10
2018-06-09T09:46:14.212Z,22.40
2018-06-09T09:48:42.427Z,24.67
2018-06-09T09:51:10.622Z,26.40
2018-06-09T09:53:38.801Z,24.10
2018-06-09T09:56:06.982Z,24.87
2018-06-09T09:58:35.176Z,27.90
2018-06-09T10:01:03.345Z,28.07
2018-06-09T10:03:31.513Z,25.50
2018-06-09T10:05:59.718Z,26.53
2018-06-09T10:08:27.932Z,29.13
2018-06-09T10:10:56.117Z,26.17
2018-06-09T10:13:24.289Z,26.30
2018-06-09T10:15:52.472Z,23.93
2018-06-09T10:18:20.637Z,27.03
2018-06-09T10:20:48.821Z,27.33
2018-06-09T10:23:16.993Z,28.83
2018-06-09T10:25:45.168Z,24.33
2018-06-09T10:28:13.357Z,28.27
2018-06-09T10:30:41.626Z,27.07
2018-06-09T10:33:09.809Z,25.73
2018-06-09T10:35:37.985Z,27.73
2018-06-09T10:38:06.212Z,27.60
2018-06-09T10:40:34.413Z,24.03
2018-06-09T10:43:02.585Z,23.67
2018-06-09T10:45:30.754Z,26.73
2018-06-09T10:47:58.933Z,26.27
2018-06-09T10:50:27.121Z,23.80
2018-06-09T10:52:55.364Z,23.80
2018-06-09T10:55:23.561Z,23.67
2018-06-09T10:57:51.749Z,24.93
2018-06-09T11:00:19.928Z,25.10
2018-06-09T11:02:48.098Z,23.33
2018-06-09T11:05:16.266Z,22.53
2018-06-09T11:07:44.526Z,21.13
2018-06-09T11:10:12.705Z,20.73
2018-06-09T11:12:40.881Z,21.13
2018-06-09T11:15:09.066Z,19.23
2018-06-09T11:17:37.315Z,18.97
2018-06-09T11:20:05.503Z,19.07
2018-06-09T11:22:33.674Z,19.37
2018-06-09T11:25:01.852Z,18.87
2018-06-09T11:27:30.027Z,19.27
2018-06-09T11:29:58.242Z,19.90
2018-06-09T11:32:26.389Z,20.33
2018-06-09T11:34:54.609Z,19.07
2018-06-09T11:37:22.805Z,20.93
2018-06-09T11:39:51.013Z,20.60
2018-06-09T11:42:19.212Z,18.57
2018-06-09T11:44:47.407Z,19.90
2018-06-09T11:47:15.596Z,20.70
2018-06-09T11:49:43.805Z,19.87
2018-06-09T11:52:11.985Z,21.43
2018-06-09T11:54:40.182Z,20.27
2018-06-09T11:57:08.378Z,21.80
2018-06-09T11:59:36.554Z,21.27
2018-06-09T12:02:04.484Z,18.13
2018-06-09T12:04:32.676Z,18.97
2018-06-09T12:07:00.609Z,20.67
2018-06-09T12:09:28.786Z,20.50
2018-06-09T12:11:56.948Z,20.77
2018-06-09T12:14:25.134Z,19.97
2018-06-09T12:16:53.336Z,20.63
2018-06-09T12:19:21.559Z,21.77
2018-06-09T12:21:49.744Z,23.10
2018-06-09T12:24:17.914Z,21.27
2018-06-09T12:26:46.157Z,21.50
2018-06-09T12:29:14.355Z,21.60
2018-06-09T12:31:42.541Z,21.87
2018-06-09T12:34:10.730Z,23.47
2018-06-09T12:36:38.957Z,21.77
2018-06-09T12:39:07.793Z,23.50
2018-06-09T12:41:35.983Z,21.23
2018-06-09T12:44:04.179Z,22.40
2018-06-09T12:46:32.365Z,22.27
2018-06-09T12:49:00.356Z,21.77
2018-06-09T12:51:28.520Z,21.07
2018-06-09T12:53:56.696Z,24.27
2018-06-09T12:56:24.889Z,20.43
2018-06-09T12:58:53.077Z,21.10
2018-06-09T13:01:21.363Z,20.50
2018-06-09T13:03:49.610Z,21.73
2018-06-09T13:06:17.806Z,19.80
2018-06-09T13:08:46.053Z,20.93
2018-06-09T13:11:14.226Z,20.93
2018-06-09T13:13:42.401Z,20.80
2018-06-09T13:16:10.573Z,20.90
2018-06-09T13:18:38.853Z,20.33
2018-06-09T13:21:07.040Z,20.83
2018-06-09T13:23:35.225Z,20.20
2018-06-09T13:26:03.474Z,22.17
2018-06-09T13:28:31.648Z,21.70
2018-06-09T13:30:59.808Z,19.37
2018-06-09T13:33:27.984Z,19.60
2018-06-09T13:35:56.210Z,20.60
2018-06-09T13:38:24.358Z,19.23
2018-06-09T13:40:52.519Z,18.73
2018-06-09T13:43:20.774Z,17.87
2018-06-09T13:45:48.724Z,18.13
2018-06-09T13:48:16.942Z,18.77
2018-06-09T13:50:45.104Z,18.17
2018-06-09T13:53:13.310Z,18.50
2018-06-09T13:55:41.481Z,18.07
2018-06-09T13:58:09.659Z,18.33
2018-06-09T14:00:37.866Z,18.53
2018-06-09T14:03:06.072Z,18.13
2018-06-09T14:05:34.029Z,18.20
2018-06-09T14:08:02.230Z,18.17
2018-06-09T14:10:30.430Z,18.50
2018-06-09T14:12:58.673Z,17.17
2018-06-09T14:15:26.861Z,18.43
2018-06-09T14:17:55.051Z,18.53
2018-06-09T14:20:23.233Z,19.67
2018-06-09T14:22:51.432Z,24.87
2018-06-09T14:25:19.646Z,24.20
2018-06-09T14:27:47.825Z,23.80
2018-06-09T14:30:15.990Z,21.57
2018-06-09T14:32:44.170Z,19.23
2018-06-09T14:35:12.366Z,18.23
2018-06-09T14:37:40.538Z,21.10
2018-06-09T14:40:08.739Z,18.43
2018-06-09T14:42:36.939Z,18.60
2018-06-09T14:45:05.146Z,19.50
2018-06-09T14:47:33.337Z,19.83
2018-06-09T14:50:01.526Z,18.40
2018-06-09T14:52:29.700Z,20.30
2018-06-09T14:54:57.909Z,17.83
2018-06-09T14:57:26.114Z,20.07
2018-06-09T14:59:54.313Z,22.57
2018-06-09T15:02:22.484Z,18.87
2018-06-09T15:04:50.707Z,18.37
2018-06-09T15:07:18.936Z,18.67
2018-06-09T15:09:47.098Z,19.23
2018-06-09T15:12:15.277Z,19.17
2018-06-09T15:14:43.456Z,19.33
2018-06-09T15:17:18.375Z,21.17
2018-06-09T15:19:46.549Z,25.43
2018-06-09T15:22:14.732Z,24.63
2018-06-09T15:24:42.957Z,24.10
2018-06-09T15:27:11.167Z,23.63
2018-06-09T15:29:39.369Z,27.93
2018-06-09T15:32:07.597Z,26.33
2018-06-09T15:34:35.523Z,25.70
2018-06-09T15:37:03.729Z,24.97
2018-06-09T15:39:31.906Z,25.20
2018-06-09T15:42:00.127Z,26.10
2018-06-09T15:44:28.320Z,21.50
2018-06-09T15:46:56.521Z,26.53
2018-06-09T15:49:24.708Z,21.90
2018-06-09T15:51:52.675Z,21.30
2018-06-09T15:54:20.862Z,21.57
2018-06-09T15:56:48.806Z,21.07
2018-06-09T15:59:16.991Z,22.20
2018-06-09T16:01:45.169Z,21.70
2018-06-09T16:04:13.115Z,20.17
2018-06-09T16:06:41.305Z,19.83
2018-06-09T16:09:09.557Z,16.30
2018-06-09T16:11:37.701Z,16.93
2018-06-09T16:14:05.977Z,17.60
2018-06-09T16:16:34.157Z,16.57
2018-06-09T16:19:02.317Z,19.60
2018-06-09T16:21:30.495Z,19.80
2018-06-09T16:23:58.678Z,17.27
2018-06-09T16:26:26.893Z,15.17
2018-06-09T16:28:55.083Z,14.17
2018-06-09T16:31:23.341Z,14.77
2018-06-09T16:33:51.538Z,11.93
2018-06-09T16:36:19.464Z,13.37
2018-06-09T16:38:47.659Z,12.80
2018-06-09T16:41:15.844Z,16.33
2018-06-09T16:43:44.010Z,13.47
2018-06-09T16:46:12.186Z,14.33
2018-06-09T16:48:40.763Z,14.93
2018-06-09T16:51:08.957Z,16.03
2018-06-09T16:53:37.145Z,14.97
2018-06-09T16:56:05.089Z,14.83
2018-06-09T16:58:33.254Z,13.60
2018-06-09T17:01:01.490Z,13.27
2018-06-09T17:03:29.417Z,13.70
2018-06-09T17:05:57.606Z,12.77
2018-06-09T17:08:25.777Z,13.10
2018-06-09T17:10:53.731Z,13.17
2018-06-09T17:13:21.905Z,12.27
2018-06-09T17:15:50.081Z,12.30
2018-06-09T17:18:18.270Z,12.77
2018-06-09T17:20:46.181Z,11.50
2018-06-09T17:23:14.380Z,11.70
2018-06-09T17:25:42.572Z,11.20
2018-06-09T17:28:10.747Z,11.37
2018-06-09T17:30:38.909Z,14.93
2018-06-09T17:33:07.100Z,11.40
2018-06-09T17:35:35.010Z,12.73
2018-06-09T17:38:03.188Z,11.60
2018-06-09T17:40:31.344Z,11.53
2018-06-09T17:42:59.520Z,12.37
2018-06-09T17:45:27.670Z,11.10
2018-06-09T17:47:55.946Z,12.47
2018-06-09T17:50:23.877Z,10.80
2018-06-09T17:52:52.074Z,12.00
2018-06-09T17:55:20.240Z,10.53
2018-06-09T17:57:48.450Z,12.07
2018-06-09T18:00:16.609Z,11.67
2018-06-09T18:02:44.550Z,13.07
2018-06-09T18:05:12.713Z,11.80
2018-06-09T18:07:40.888Z,15.40
2018-06-09T18:10:09.097Z,12.37
2018-06-09T18:12:37.221Z,12.50
2018-06-09T18:15:05.408Z,13.07
2018-06-09T18:17:33.598Z,13.97
2018-06-09T18:20:01.765Z,14.73
2018-06-09T18:22:29.949Z,14.13
2018-06-09T18:24:58.145Z,13.20
2018-06-09T18:27:26.318Z,12.10
2018-06-09T18:29:54.232Z,11.97
2018-06-09T18:32:22.453Z,12.83
2018-06-09T18:34:50.633Z,12.73
2018-06-09T18:37:18.822Z,12.80
2018-06-09T18:39:46.997Z,15.07
2018-06-09T18:42:15.153Z,12.00
2018-06-09T18:44:43.335Z,12.77
2018-06-09T18:47:11.273Z,12.20
2018-06-09T18:49:39.445Z,13.00
2018-06-09T18:52:07.617Z,12.83
2018-06-09T18:54:35.797Z,11.40
2018-06-09T18:57:03.955Z,10.83
2018-06-09T18:59:32.140Z,11.67
2018-06-09T19:02:00.325Z,10.67
2018-06-09T19:04:28.509Z,11.07
2018-06-09T19:06:56.667Z,11.33
2018-06-09T19:09:24.838Z,12.03
2018-06-09T19:11:53.014Z,12.60
2018-06-09T19:14:21.193Z,30.57
2018-06-09T19:16:49.354Z,11.23
2018-06-09T19:19:17.541Z,12.53
2018-06-09T19:21:45.795Z,11.10
2018-06-09T19:24:13.974Z,21.90
2018-06-09T19:26:42.142Z,12.67
2018-06-09T19:29:10.565Z,12.83
2018-06-09T19:31:38.745Z,12.03
2018-06-09T19:34:06.900Z,11.20
2018-06-09T19:36:35.066Z,10.33
2018-06-09T19:39:04.017Z,10.30
2018-06-09T19:41:32.202Z,11.67
2018-06-09T19:44:00.401Z,10.93
2018-06-09T19:46:28.577Z,11.53
2018-06-09T19:48:56.783Z,12.03
2018-06-09T19:51:24.750Z,15.13
2018-06-09T19:53:52.925Z,27.10
2018-06-09T19:56:21.150Z,11.70
2018-06-09T19:58:49.350Z,15.97
2018-06-09T20:01:17.514Z,14.70
2018-06-09T20:03:45.699Z,13.53
2018-06-09T20:06:13.881Z,13.23
2018-06-09T20:08:42.052Z,12.90
2018-06-09T20:11:10.197Z,12.40
2018-06-09T20:13:38.406Z,13.13
2018-06-09T20:16:06.549Z,13.27
2018-06-09T20:18:34.717Z,12.50
2018-06-09T20:21:02.894Z,11.93
2018-06-09T20:23:31.084Z,12.97
2018-06-09T20:26:04.218Z,13.03
2018-06-09T20:28:32.671Z,12.07
2018-06-09T20:31:00.963Z,19.20
2018-06-09T20:33:29.133Z,13.43
2018-06-09T20:35:57.087Z,21.17
2018-06-09T20:38:25.257Z,12.63
2018-06-09T20:40:53.440Z,12.60
2018-06-09T20:43:21.593Z,12.90
2018-06-09T20:45:49.776Z,13.00
2018-06-09T20:48:17.958Z,16.83
2018-06-09T20:50:46.144Z,15.80
2018-06-09T20:53:14.322Z,15.73
2018-06-09T20:55:42.513Z,14.77
2018-06-09T20:58:10.857Z,14.53
2018-06-09T21:00:39.154Z,24.60
2018-06-09T21:03:07.160Z,17.10
2018-06-09T21:05:35.381Z,16.53
2018-06-09T21:08:03.623Z,23.20
2018-06-09T21:10:31.857Z,14.57
2018-06-09T21:13:00.098Z,16.17
2018-06-09T21:15:28.319Z,14.87
2018-06-09T21:17:56.484Z,17.77
2018-06-09T21:20:24.669Z,17.43
2018-06-09T21:22:52.830Z,17.53
2018-06-09T21:25:21.038Z,16.97
2018-06-09T21:27:54.603Z,17.80
2018-06-09T21:30:28.170Z,18.27
2018-06-09T21:33:01.807Z,18.03
2018-06-09T21:35:43.466Z,33.67
2018-06-09T21:38:17.810Z,17.07
2018-06-09T21:40:48.547Z,18.20
2018-06-09T21:43:22.454Z,16.03
2018-06-09T21:45:51.101Z,16.30
2018-06-09T21:48:19.860Z,17.70
2018-06-09T21:50:48.054Z,16.60
2018-06-09T21:53:16.228Z,16.67
2018-06-09T21:55:44.401Z,15.17
2018-06-09T21:58:12.594Z,14.40
2018-06-09T22:00:40.822Z,18.00
2018-06-09T22:03:08.981Z,16.50
2018-06-09T22:05:36.962Z,14.40
2018-06-09T22:08:05.138Z,16.07
2018-06-09T22:10:33.297Z,17.97
2018-06-09T22:13:01.225Z,17.97
2018-06-09T22:15:29.409Z,16.73
2018-06-09T22:17:57.620Z,15.57
2018-06-09T22:20:25.795Z,13.70
2018-06-09T22:22:53.737Z,14.33
2018-06-09T22:25:27.310Z,15.00
2018-06-09T22:27:55.492Z,14.60
2018-06-09T22:30:23.665Z,15.37
2018-06-09T22:32:51.841Z,16.13
2018-06-09T22:35:20.005Z,15.73
2018-06-09T22:37:48.225Z,15.50
2018-06-09T22:40:16.406Z,15.60
2018-06-09T22:42:44.393Z,15.87
2018-06-09T22:45:12.557Z,14.57
2018-06-09T22:47:41.161Z,13.67
2018-06-09T22:50:09.369Z,15.93
2018-06-09T22:52:37.536Z,14.40
2018-06-09T22:55:05.793Z,13.40
2018-06-09T22:57:33.974Z,14.30
2018-06-09T23:00:02.166Z,14.17
2018-06-09T23:02:30.321Z,13.93
2018-06-09T23:04:58.489Z,14.10
2018-06-09T23:07:26.665Z,17.43
2018-06-09T23:09:54.846Z,15.17
2018-06-09T23:12:23.038Z,15.53
2018-06-09T23:14:51.221Z,16.33
2018-06-09T23:17:19.397Z,15.87
2018-06-09T23:19:47.596Z,15.83
2018-06-09T23:22:15.764Z,40.30
2018-06-09T23:24:43.726Z,26.90
2018-06-09T23:27:11.942Z,16.27
2018-06-09T23:29:40.191Z,15.93
2018-06-09T23:32:08.444Z,17.70
2018-06-09T23:34:36.704Z,17.50
2018-06-09T23:37:04.967Z,15.77
2018-06-09T23:39:33.236Z,16.07
2018-06-09T23:42:01.595Z,15.63
2018-06-09T23:44:29.779Z,17.27
2018-06-09T23:46:57.965Z,17.53
2018-06-09T23:49:26.140Z,18.90
2018-06-09T23:51:54.347Z,18.87
2018-06-09T23:54:22.497Z,31.83
2018-06-09T23:56:50.694Z,24.50
2018-06-09T23:59:18.873Z,19.30
